createdAt,value
2019-02-28T00:00:47.172Z,8.70
2019-02-28T00:03:16.369Z,8.37
2019-02-28T00:05:45.497Z,8.13
2019-02-28T00:08:14.708Z,7.53
2019-02-28T00:10:43.929Z,6.60
2019-02-28T00:13:13.132Z,8.03
2019-02-28T00:15:42.443Z,8.35
2019-02-28T00:18:15.289Z,8.30
2019-02-28T00:20:42.565Z,7.63
2019-02-28T00:23:11.700Z,8.87
2019-02-28T00:25:40.883Z,7.50
2019-02-28T00:28:09.984Z,8.27
2019-02-28T00:30:40.798Z,8.47
2019-02-28T00:33:10.572Z,7.67
2019-02-28T00:35:39.757Z,9.23
2019-02-28T00:38:08.979Z,8.20
2019-02-28T00:40:38.614Z,9.00
2019-02-28T00:43:08.752Z,7.70
2019-02-28T00:45:37.956Z,8.10
2019-02-28T00:48:07.151Z,8.10
2019-02-28T00:50:36.433Z,8.97
2019-02-28T00:53:06.363Z,9.03
2019-02-28T00:55:36.573Z,8.30
2019-02-28T00:58:05.791Z,8.67
2019-02-28T01:00:37.087Z,9.33
2019-02-28T01:03:05.980Z,8.97
2019-02-28T01:05:36.583Z,9.53
2019-02-28T01:08:06.114Z,9.15
2019-02-28T01:10:39.141Z,17.10
2019-02-28T01:13:06.231Z,13.30
2019-02-28T01:15:35.457Z,12.58
2019-02-28T01:18:04.755Z,16.53
2019-02-28T10:50:45.365Z,25.52
2019-02-28T10:53:14.583Z,25.43
2019-02-28T10:55:43.819Z,26.15
2019-02-28T10:58:15.474Z,23.40
2019-02-28T11:00:44.302Z,23.67
2019-02-28T11:03:13.665Z,23.02
2019-02-28T11:05:44.432Z,22.82
2019-02-28T11:08:16.687Z,24.02
2019-02-28T11:10:46.632Z,26.52
2019-02-28T11:13:17.895Z,24.25
2019-02-28T11:15:48.403Z,27.85
2019-02-28T11:18:18.526Z,25.65
2019-02-28T11:20:47.892Z,25.60
2019-02-28T11:23:18.015Z,27.30
2019-02-28T11:25:47.315Z,26.40
2019-02-28T11:28:17.021Z,24.27
2019-02-28T11:30:46.844Z,27.10
2019-02-28T11:33:16.505Z,24.85
2019-02-28T11:35:45.793Z,26.07
2019-02-28T11:38:20.494Z,25.52
2019-02-28T11:40:46.315Z,24.40
2019-02-28T11:43:15.632Z,26.68
2019-02-28T11:45:45.421Z,27.52
2019-02-28T11:48:18.922Z,25.10
2019-02-28T11:50:45.685Z,25.60
2019-02-28T11:53:14.921Z,27.75
2019-02-28T11:55:44.267Z,26.62
2019-02-28T11:58:16.710Z,26.27
2019-02-28T12:00:44.541Z,28.23
2019-02-28T12:03:13.770Z,27.40
2019-02-28T12:05:43.006Z,26.35
2019-02-28T12:08:12.641Z,27.98
2019-02-28T12:10:41.852Z,28.17
2019-02-28T12:13:11.308Z,26.90
2019-02-28T12:15:40.439Z,28.92
2019-02-28T12:18:09.660Z,29.77
2019-02-28T12:20:38.947Z,27.42
2019-02-28T12:23:08.361Z,27.70
2019-02-28T12:25:39.602Z,25.17
2019-02-28T12:28:09.012Z,27.98
2019-02-28T12:30:40.172Z,28.05
2019-02-28T12:33:10.180Z,26.52
2019-02-28T12:35:40.645Z,24.35
2019-02-28T12:38:09.983Z,27.27
2019-02-28T12:40:39.203Z,29.67
2019-02-28T12:43:09.587Z,29.23
2019-02-28T12:45:39.226Z,31.73
2019-02-28T12:48:08.366Z,34.98
2019-02-28T12:50:37.546Z,41.68
2019-02-28T12:53:06.921Z,30.85
2019-02-28T12:55:39.036Z,29.15
2019-02-28T12:58:07.064Z,34.40
2019-02-28T13:00:37.657Z,32.70
2019-02-28T13:03:09.055Z,27.77
2019-02-28T13:05:37.927Z,34.43
2019-02-28T13:08:07.235Z,29.32
2019-02-28T13:10:36.553Z,27.30
2019-02-28T13:13:07.533Z,27.30
2019-02-28T13:15:36.763Z,25.37
2019-02-28T13:18:08.943Z,27.67
2019-02-28T13:20:37.679Z,27.52
2019-02-28T13:23:07.130Z,26.20
2019-02-28T13:25:36.360Z,28.17
2019-02-28T13:28:06.666Z,29.32
2019-02-28T13:30:35.883Z,29.00
2019-02-28T13:33:05.269Z,27.27
2019-02-28T13:35:34.890Z,27.48
2019-02-28T13:38:04.533Z,27.85
2019-02-28T13:40:33.823Z,25.20
2019-02-28T13:43:03.042Z,26.70
2019-02-28T13:45:32.718Z,26.35
2019-02-28T13:48:03.514Z,25.97
2019-02-28T13:50:33.125Z,27.67
2019-02-28T13:53:16.910Z,25.77
2019-02-28T13:55:33.646Z,24.85
2019-02-28T13:58:03.255Z,26.90
2019-02-28T14:00:32.475Z,26.15
2019-02-28T14:03:08.844Z,25.90
2019-02-28T14:05:39.263Z,25.90
2019-02-28T14:08:25.202Z,28.23
2019-02-28T14:10:55.259Z,27.90
2019-02-28T14:13:24.475Z,28.05
2019-02-28T14:15:53.738Z,27.40
2019-02-28T14:18:22.946Z,25.52
2019-02-28T14:20:52.146Z,27.55
2019-02-28T14:23:21.635Z,27.85
2019-02-28T14:25:51.174Z,29.00
2019-02-28T14:28:20.676Z,27.37
2019-02-28T14:30:50.082Z,27.13
2019-02-28T14:33:20.650Z,28.30
2019-02-28T14:35:50.158Z,27.80
2019-02-28T14:38:19.497Z,27.80
2019-02-28T14:40:49.707Z,26.85
2019-02-28T14:43:20.717Z,28.87
2019-02-28T14:45:50.102Z,28.07
2019-02-28T14:48:19.998Z,29.87
2019-02-28T14:50:50.549Z,29.32
2019-02-28T14:53:20.125Z,27.87
2019-02-28T14:55:49.345Z,31.30
2019-02-28T14:58:21.217Z,30.57
2019-02-28T15:00:49.786Z,27.90
2019-02-28T15:03:18.986Z,30.32
2019-02-28T15:05:48.222Z,30.72
2019-02-28T15:08:17.392Z,31.33
2019-02-28T15:10:46.664Z,28.73
2019-02-28T15:13:16.133Z,31.27
2019-02-28T15:15:45.364Z,34.43
2019-02-28T15:18:14.844Z,32.25
2019-02-28T15:20:44.098Z,29.98
2019-02-28T15:23:13.309Z,31.77
2019-02-28T15:25:43.292Z,29.23
2019-02-28T15:28:13.948Z,29.02
2019-02-28T15:30:43.964Z,31.10
2019-02-28T15:33:13.175Z,28.95
2019-02-28T15:35:42.353Z,32.00
2019-02-28T15:38:11.475Z,30.25
2019-02-28T15:40:40.819Z,30.52
2019-02-28T15:43:10.196Z,28.75
2019-02-28T15:45:39.749Z,31.45
2019-02-28T15:48:08.956Z,28.38
2019-02-28T15:50:38.253Z,30.82
2019-02-28T15:53:07.870Z,33.40
2019-02-28T15:55:37.222Z,30.50
2019-02-28T15:58:07.080Z,31.27
2019-02-28T16:00:36.672Z,30.82
2019-02-28T16:03:06.609Z,29.72
2019-02-28T16:05:42.417Z,29.45
2019-02-28T16:08:10.286Z,29.95
2019-02-28T16:10:37.917Z,30.08
2019-02-28T16:13:07.924Z,30.68
2019-02-28T16:15:37.050Z,28.83
2019-02-28T16:18:08.725Z,30.85
2019-02-28T16:20:38.307Z,31.27
2019-02-28T16:23:07.647Z,28.77
2019-02-28T16:25:37.093Z,31.77
2019-02-28T16:28:08.877Z,30.55
2019-02-28T16:30:39.130Z,30.72
2019-02-28T16:33:08.274Z,30.08
2019-02-28T16:35:37.909Z,28.95
2019-02-28T16:38:09.868Z,33.88
2019-02-28T16:40:38.165Z,31.90
2019-02-28T16:43:07.558Z,30.20
2019-02-28T16:45:41.026Z,30.45
2019-02-28T16:48:10.941Z,31.42
2019-02-28T16:50:40.155Z,31.40
2019-02-28T16:53:14.771Z,31.40
2019-02-28T16:55:40.886Z,32.88
2019-02-28T16:58:10.122Z,33.18
2019-02-28T17:00:39.615Z,33.83
2019-02-28T17:03:10.154Z,31.07
2019-02-28T17:05:39.479Z,32.20
2019-02-28T17:08:08.994Z,30.80
2019-02-28T17:10:40.275Z,32.38
2019-02-28T17:13:18.704Z,32.70
2019-02-28T17:16:05.837Z,32.05
2019-02-28T17:18:36.392Z,30.90
2019-02-28T17:21:05.833Z,30.15
2019-02-28T17:23:37.062Z,32.23
2019-02-28T17:26:06.052Z,30.82
2019-02-28T17:29:00.218Z,31.42
2019-02-28T17:31:48.211Z,28.35
2019-02-28T17:34:23.858Z,32.98
2019-02-28T17:36:50.211Z,32.25
2019-02-28T17:39:19.437Z,31.68
2019-02-28T17:41:48.651Z,31.42
2019-02-28T17:44:30.734Z,30.60
2019-02-28T17:47:01.821Z,33.85
2019-02-28T17:49:59.970Z,31.20
2019-02-28T17:52:41.821Z,33.42
2019-02-28T17:55:41.410Z,33.63
2019-02-28T17:58:32.598Z,32.73
2019-02-28T18:01:29.885Z,32.58
2019-02-28T18:04:33.602Z,32.35
2019-02-28T18:07:40.337Z,33.33
2019-02-28T18:10:34.350Z,32.88
2019-02-28T18:13:16.238Z,30.70
2019-02-28T18:16:32.670Z,31.93
2019-02-28T18:19:41.714Z,32.93
2019-02-28T18:22:41.509Z,31.00
2019-02-28T18:25:52.040Z,32.48
2019-02-28T18:31:34.421Z,32.93
2019-02-28T18:34:09.209Z,31.80
2019-02-28T18:36:40.198Z,30.90
2019-02-28T18:39:11.465Z,32.70
2019-02-28T18:41:42.252Z,30.65
2019-02-28T18:44:12.170Z,32.70
2019-02-28T18:46:41.393Z,34.33
2019-02-28T18:49:10.841Z,31.10
2019-02-28T18:51:40.273Z,34.05
2019-02-28T18:54:09.716Z,32.17
2019-02-28T18:56:38.978Z,31.68
2019-02-28T18:59:08.195Z,32.23
2019-02-28T19:01:37.569Z,31.48
2019-02-28T19:04:06.763Z,34.13
2019-02-28T19:06:35.959Z,32.23
2019-02-28T19:09:21.510Z,30.73
2019-02-28T19:11:50.886Z,33.95
2019-02-28T19:14:20.112Z,33.70
2019-02-28T19:16:49.359Z,33.65
2019-02-28T19:19:18.604Z,34.20
2019-02-28T19:21:47.895Z,32.90
2019-02-28T19:24:17.200Z,35.92
2019-02-28T19:26:46.397Z,32.75
2019-02-28T19:29:15.610Z,32.40
2019-02-28T19:31:44.897Z,35.63
2019-02-28T19:34:14.026Z,34.13
2019-02-28T19:36:43.275Z,35.87
2019-02-28T19:39:12.797Z,37.40
2019-02-28T19:41:42.073Z,36.48
2019-02-28T19:44:22.779Z,39.80
2019-02-28T19:46:53.166Z,41.35
2019-02-28T19:49:22.337Z,43.98
2019-02-28T19:51:51.566Z,40.97
2019-02-28T19:54:20.864Z,46.27
2019-02-28T19:56:50.066Z,47.20
2019-02-28T19:59:19.339Z,54.03
2019-02-28T20:01:48.467Z,49.08
2019-02-28T20:04:17.635Z,49.18
2019-02-28T20:06:46.853Z,53.30
2019-02-28T20:09:16.082Z,56.40
2019-02-28T20:11:45.372Z,53.33
2019-02-28T20:14:14.574Z,54.23
2019-02-28T20:16:43.802Z,55.70
2019-02-28T20:19:13.024Z,54.07
2019-02-28T20:21:42.243Z,54.05
2019-02-28T20:24:11.452Z,53.00
2019-02-28T20:26:40.657Z,47.53
2019-02-28T20:29:09.862Z,49.55
2019-02-28T20:31:39.076Z,48.20
2019-02-28T20:34:08.781Z,45.70
2019-02-28T20:36:38.080Z,37.53
2019-02-28T20:39:10.132Z,28.40
2019-02-28T20:41:39.350Z,24.37
2019-02-28T20:44:08.561Z,23.62
2019-02-28T20:46:37.803Z,21.95
2019-02-28T20:49:06.930Z,20.48
2019-02-28T20:51:36.160Z,92.70
2019-02-28T20:54:05.310Z,79.90
2019-02-28T20:56:34.629Z,17.82
2019-02-28T20:59:03.921Z,16.77
2019-02-28T21:01:33.161Z,16.62
2019-02-28T21:04:02.443Z,15.98
2019-02-28T21:06:31.570Z,15.18
2019-02-28T21:09:00.800Z,16.27
2019-02-28T21:11:29.970Z,15.55
2019-02-28T21:13:59.206Z,16.10
2019-02-28T21:16:28.419Z,15.05
2019-02-28T21:18:58.288Z,13.68
2019-02-28T21:21:27.838Z,15.57
2019-02-28T21:23:57.023Z,14.53
2019-02-28T21:26:26.214Z,15.40
2019-02-28T21:28:55.440Z,14.37
2019-02-28T21:31:24.654Z,15.50
2019-02-28T21:33:53.774Z,16.52
2019-02-28T21:36:23.035Z,14.95
2019-02-28T21:38:52.252Z,15.13
2019-02-28T21:41:21.572Z,14.63
2019-02-28T21:43:50.786Z,15.50
2019-02-28T21:46:20.029Z,14.87
2019-02-28T21:48:49.332Z,15.15
2019-02-28T21:51:18.556Z,17.75
2019-02-28T21:53:47.769Z,14.87
2019-02-28T21:56:17.012Z,15.10
2019-02-28T21:58:46.222Z,15.93
2019-02-28T22:01:15.373Z,15.57
2019-02-28T22:03:44.689Z,16.60
2019-02-28T22:06:13.882Z,18.20
2019-02-28T22:08:43.058Z,15.63
2019-02-28T22:11:12.229Z,17.37
2019-02-28T22:13:41.445Z,17.70
2019-02-28T22:16:10.664Z,17.60
2019-02-28T22:18:39.908Z,18.15
2019-02-28T22:21:09.132Z,18.98
2019-02-28T22:23:38.396Z,17.95
2019-02-28T22:26:07.647Z,24.77
2019-02-28T22:28:36.923Z,22.07
2019-02-28T22:31:17.332Z,23.50
2019-02-28T22:34:02.795Z,26.97
2019-02-28T22:36:40.545Z,27.52
2019-02-28T22:39:10.782Z,25.88
2019-02-28T22:41:39.982Z,31.00
2019-02-28T22:44:09.229Z,29.20
2019-02-28T22:46:38.525Z,29.05
2019-02-28T22:49:07.774Z,35.07
2019-02-28T22:51:37.058Z,32.00
2019-02-28T22:54:06.291Z,34.67
2019-02-28T22:56:35.514Z,35.20
2019-02-28T22:59:04.758Z,147.72
2019-02-28T23:01:35.032Z,35.83
2019-02-28T23:04:04.724Z,34.30
2019-02-28T23:06:33.953Z,34.07
2019-02-28T23:09:04.455Z,32.70
2019-02-28T23:11:33.732Z,34.53
2019-02-28T23:14:03.154Z,28.83
2019-02-28T23:16:32.436Z,30.27
2019-02-28T23:19:01.657Z,33.37
2019-02-28T23:21:30.763Z,29.03
2019-02-28T23:24:00.014Z,28.70
2019-02-28T23:26:29.224Z,25.90
2019-02-28T23:29:13.468Z,25.60
2019-02-28T23:31:56.676Z,25.43
2019-02-28T23:34:35.890Z,24.50
2019-02-28T23:37:05.032Z,24.03
2019-02-28T23:39:34.286Z,26.00
2019-02-28T23:42:03.501Z,25.90
2019-02-28T23:44:32.616Z,24.77
2019-02-28T23:47:01.731Z,26.00
2019-02-28T23:49:30.953Z,27.90
2019-02-28T23:52:00.162Z,24.80
2019-02-28T23:54:29.425Z,25.37
2019-02-28T23:56:58.708Z,25.37
2019-02-28T23:59:27.983Z,27.20
